sensor_id;sensor_type;location;lat;lon;timestamp;P1;durP1;ratioP1;P2;durP2;ratioP2
20002;SDS011;10162;41.600;23.806;2022-09-01T00:00:06;20.17;;;13.60;;
20002;SDS011;10162;41.600;23.806;2022-09-01T00:02:35;20.13;;;12.80;;
20002;SDS011;10162;41.600;23.806;2022-09-01T00:05:18;20.03;;;14.53;;
20002;SDS011;10162;41.600;23.806;2022-09-01T00:07:44;16.23;;;13.33;;
20002;SDS011;10162;41.600;23.806;2022-09-01T00:10:10;18.73;;;14.70;;
20002;SDS011;10162;41.600;23.806;2022-09-01T00:12:36;17.83;;;12.90;;
20002;SDS011;10162;41.600;23.806;2022-09-01T00:18:11;17.43;;;12.07;;
20002;SDS011;10162;41.600;23.806;2022-09-01T00:20:37;19.13;;;12.33;;
20002;SDS011;10162;41.600;23.806;2022-09-01T00:23:03;18.80;;;13.07;;
20002;SDS011;10162;41.600;23.806;2022-09-01T00:28:25;15.17;;;11.23;;
20002;SDS011;10162;41.600;23.806;2022-09-01T00:30:50;16.90;;;11.67;;
20002;SDS011;10162;41.600;23.806;2022-09-01T00:36:11;16.87;;;12.10;;
20002;SDS011;10162;41.600;23.806;2022-09-01T00:38:37;13.90;;;11.50;;
20002;SDS011;10162;41.600;23.806;2022-09-01T00:41:03;13.87;;;11.17;;
20002;SDS011;10162;41.600;23.806;2022-09-01T00:43:46;16.47;;;11.87;;
20002;SDS011;10162;41.600;23.806;2022-09-01T00:48:45;15.57;;;12.37;;
20002;SDS011;10162;41.600;23.806;2022-09-01T00:51:15;15.47;;;11.03;;
20002;SDS011;10162;41.600;23.806;2022-09-01T00:56:25;17.97;;;12.30;;
20002;SDS011;10162;41.600;23.806;2022-09-01T00:58:52;16.53;;;12.10;;
20002;SDS011;10162;41.600;23.806;2022-09-01T01:01:18;16.37;;;11.83;;
20002;SDS011;10162;41.600;23.806;2022-09-01T01:06:56;16.43;;;12.20;;
20002;SDS011;10162;41.600;23.806;2022-09-01T01:09:27;17.70;;;11.93;;
20002;SDS011;10162;41.600;23.806;2022-09-01T01:11:56;17.90;;;12.13;;
20002;SDS011;10162;41.600;23.806;2022-09-01T01:17:17;15.63;;;12.33;;
20002;SDS011;10162;41.600;23.806;2022-09-01T01:19:44;16.33;;;11.97;;
20002;SDS011;10162;41.600;23.806;2022-09-01T01:22:38;23.83;;;13.37;;
20002;SDS011;10162;41.600;23.806;2022-09-01T01:25:36;19.63;;;14.00;;
20002;SDS011;10162;41.600;23.806;2022-09-01T01:28:20;19.57;;;14.37;;
20002;SDS011;10162;41.600;23.806;2022-09-01T01:30:55;19.50;;;14.03;;
20002;SDS011;10162;41.600;23.806;2022-09-01T01:33:35;20.30;;;13.83;;
20002;SDS011;10162;41.600;23.806;2022-09-01T01:36:25;16.43;;;13.60;;
20002;SDS011;10162;41.600;23.806;2022-09-01T01:39:01;16.57;;;13.63;;
20002;SDS011;10162;41.600;23.806;2022-09-01T01:41:30;15.27;;;13.00;;
20002;SDS011;10162;41.600;23.806;2022-09-01T01:44:00;16.83;;;13.83;;
20002;SDS011;10162;41.600;23.806;2022-09-01T01:46:30;18.93;;;14.37;;
20002;SDS011;10162;41.600;23.806;2022-09-01T01:49:01;17.60;;;14.30;;
20002;SDS011;10162;41.600;23.806;2022-09-01T01:51:29;19.07;;;14.37;;
20002;SDS011;10162;41.600;23.806;2022-09-01T01:56:37;20.70;;;14.87;;
20002;SDS011;10162;41.600;23.806;2022-09-01T01:59:06;15.80;;;12.60;;
20002;SDS011;10162;41.600;23.806;2022-09-01T02:01:38;17.60;;;14.10;;
20002;SDS011;10162;41.600;23.806;2022-09-01T02:07:01;16.33;;;12.13;;
20002;SDS011;10162;41.600;23.806;2022-09-01T02:09:27;18.20;;;13.50;;
20002;SDS011;10162;41.600;23.806;2022-09-01T02:11:53;19.23;;;12.27;;
20002;SDS011;10162;41.600;23.806;2022-09-01T02:14:37;18.73;;;13.93;;
20002;SDS011;10162;41.600;23.806;2022-09-01T02:17:03;18.00;;;12.97;;
20002;SDS011;10162;41.600;23.806;2022-09-01T02:19:32;16.73;;;13.23;;
20002;SDS011;10162;41.600;23.806;2022-09-01T02:22:02;14.90;;;11.70;;
20002;SDS011;10162;41.600;23.806;2022-09-01T02:26:58;21.63;;;13.53;;
20002;SDS011;10162;41.600;23.806;2022-09-01T02:29:26;17.53;;;13.10;;
20002;SDS011;10162;41.600;23.806;2022-09-01T02:31:53;19.60;;;11.97;;
20002;SDS011;10162;41.600;23.806;2022-09-01T02:34:23;21.77;;;12.80;;
20002;SDS011;10162;41.600;23.806;2022-09-01T02:36:53;22.27;;;13.90;;
20002;SDS011;10162;41.600;23.806;2022-09-01T02:39:23;16.23;;;13.57;;
20002;SDS011;10162;41.600;23.806;2022-09-01T02:41:51;19.20;;;13.43;;
20002;SDS011;10162;41.600;23.806;2022-09-01T02:47:12;16.17;;;13.17;;
20002;SDS011;10162;41.600;23.806;2022-09-01T02:49:37;20.43;;;15.63;;
20002;SDS011;10162;41.600;23.806;2022-09-01T02:52:04;19.73;;;15.27;;
20002;SDS011;10162;41.600;23.806;2022-09-01T02:57:27;21.53;;;13.63;;
20002;SDS011;10162;41.600;23.806;2022-09-01T02:59:53;16.83;;;13.43;;
20002;SDS011;10162;41.600;23.806;2022-09-01T03:02:25;14.87;;;12.47;;
20002;SDS011;10162;41.600;23.806;2022-09-01T03:07:54;17.70;;;13.60;;
20002;SDS011;10162;41.600;23.806;2022-09-01T03:10:26;18.10;;;13.20;;
20002;SDS011;10162;41.600;23.806;2022-09-01T03:13:01;16.60;;;12.37;;
20002;SDS011;10162;41.600;23.806;2022-09-01T03:15:30;14.13;;;12.50;;
20002;SDS011;10162;41.600;23.806;2022-09-01T03:17:58;16.30;;;12.20;;
20002;SDS011;10162;41.600;23.806;2022-09-01T03:20:26;15.40;;;12.37;;
20002;SDS011;10162;41.600;23.806;2022-09-01T03:22:54;18.67;;;13.13;;
20002;SDS011;10162;41.600;23.806;2022-09-01T03:25:22;20.37;;;13.03;;
20002;SDS011;10162;41.600;23.806;2022-09-01T03:27:50;18.97;;;13.47;;
20002;SDS011;10162;41.600;23.806;2022-09-01T03:30:17;16.47;;;12.30;;
20002;SDS011;10162;41.600;23.806;2022-09-01T03:32:44;16.40;;;12.77;;
20002;SDS011;10162;41.600;23.806;2022-09-01T03:37:42;16.87;;;12.60;;
20002;SDS011;10162;41.600;23.806;2022-09-01T03:40:09;17.03;;;12.63;;
20002;SDS011;10162;41.600;23.806;2022-09-01T03:42:36;19.50;;;13.60;;
20002;SDS011;10162;41.600;23.806;2022-09-01T03:45:03;17.37;;;12.77;;
20002;SDS011;10162;41.600;23.806;2022-09-01T03:47:35;17.50;;;13.40;;
20002;SDS011;10162;41.600;23.806;2022-09-01T03:50:06;18.53;;;13.00;;
20002;SDS011;10162;41.600;23.806;2022-09-01T03:52:46;15.27;;;12.90;;
20002;SDS011;10162;41.600;23.806;2022-09-01T03:55:34;16.23;;;12.57;;
20002;SDS011;10162;41.600;23.806;2022-09-01T03:58:03;20.20;;;13.53;;
20002;SDS011;10162;41.600;23.806;2022-09-01T04:00:32;16.97;;;13.33;;
20002;SDS011;10162;41.600;23.806;2022-09-01T04:03:05;16.70;;;12.53;;
20002;SDS011;10162;41.600;23.806;2022-09-01T04:05:34;14.70;;;12.57;;
20002;SDS011;10162;41.600;23.806;2022-09-01T04:08:04;15.67;;;12.37;;
20002;SDS011;10162;41.600;23.806;2022-09-01T04:10:36;18.13;;;12.10;;
20002;SDS011;10162;41.600;23.806;2022-09-01T04:13:18;19.30;;;12.87;;
20002;SDS011;10162;41.600;23.806;2022-09-01T04:15:50;15.97;;;12.10;;
20002;SDS011;10162;41.600;23.806;2022-09-01T04:18:17;18.20;;;13.10;;
20002;SDS011;10162;41.600;23.806;2022-09-01T04:20:48;15.20;;;12.37;;
20002;SDS011;10162;41.600;23.806;2022-09-01T04:23:32;16.93;;;12.50;;
20002;SDS011;10162;41.600;23.806;2022-09-01T04:26:05;16.07;;;11.90;;
20002;SDS011;10162;41.600;23.806;2022-09-01T04:28:40;14.93;;;11.83;;
20002;SDS011;10162;41.600;23.806;2022-09-01T04:31:12;16.40;;;11.43;;
20002;SDS011;10162;41.600;23.806;2022-09-01T04:36:54;15.30;;;11.93;;
20002;SDS011;10162;41.600;23.806;2022-09-01T04:39:22;14.90;;;11.70;;
20002;SDS011;10162;41.600;23.806;2022-09-01T04:41:49;16.47;;;11.70;;
20002;SDS011;10162;41.600;23.806;2022-09-01T04:47:18;19.03;;;12.20;;
20002;SDS011;10162;41.600;23.806;2022-09-01T04:49:55;18.87;;;12.60;;
20002;SDS011;10162;41.600;23.806;2022-09-01T04:52:26;16.53;;;12.20;;
20002;SDS011;10162;41.600;23.806;2022-09-01T04:57:27;16.27;;;11.93;;
20002;SDS011;10162;41.600;23.806;2022-09-01T04:59:55;15.63;;;11.70;;
20002;SDS011;10162;41.600;23.806;2022-09-01T05:02:22;16.13;;;11.60;;
20002;SDS011;10162;41.600;23.806;2022-09-01T05:07:37;18.77;;;12.10;;
20002;SDS011;10162;41.600;23.806;2022-09-01T05:10:03;17.50;;;13.83;;
20002;SDS011;10162;41.600;23.806;2022-09-01T05:12:45;20.87;;;13.97;;
20002;SDS011;10162;41.600;23.806;2022-09-01T05:15:14;18.10;;;14.03;;
20002;SDS011;10162;41.600;23.806;2022-09-01T05:17:41;24.37;;;17.20;;
20002;SDS011;10162;41.600;23.806;2022-09-01T05:20:08;20.40;;;14.80;;
20002;SDS011;10162;41.600;23.806;2022-09-01T05:22:36;23.73;;;15.53;;
20002;SDS011;10162;41.600;23.806;2022-09-01T05:27:42;16.20;;;13.33;;
20002;SDS011;10162;41.600;23.806;2022-09-01T05:30:15;27.73;;;15.77;;
20002;SDS011;10162;41.600;23.806;2022-09-01T05:32:43;21.13;;;14.83;;
20002;SDS011;10162;41.600;23.806;2022-09-01T05:35:13;16.83;;;13.97;;
20002;SDS011;10162;41.600;23.806;2022-09-01T05:37:39;17.00;;;14.53;;
20002;SDS011;10162;41.600;23.806;2022-09-01T05:40:07;19.80;;;13.47;;
20002;SDS011;10162;41.600;23.806;2022-09-01T05:42:41;20.87;;;16.43;;
20002;SDS011;10162;41.600;23.806;2022-09-01T05:45:08;17.27;;;15.27;;
20002;SDS011;10162;41.600;23.806;2022-09-01T05:47:37;20.00;;;15.67;;
20002;SDS011;10162;41.600;23.806;2022-09-01T05:50:04;22.03;;;15.53;;
20002;SDS011;10162;41.600;23.806;2022-09-01T05:52:33;18.50;;;14.97;;
20002;SDS011;10162;41.600;23.806;2022-09-01T05:55:01;21.43;;;14.70;;
20002;SDS011;10162;41.600;23.806;2022-09-01T05:57:28;17.10;;;13.90;;
20002;SDS011;10162;41.600;23.806;2022-09-01T05:59:59;17.67;;;14.47;;
20002;SDS011;10162;41.600;23.806;2022-09-01T06:02:26;15.73;;;13.50;;
20002;SDS011;10162;41.600;23.806;2022-09-01T06:04:54;16.17;;;13.93;;
20002;SDS011;10162;41.600;23.806;2022-09-01T06:07:25;27.87;;;21.70;;
20002;SDS011;10162;41.600;23.806;2022-09-01T06:09:54;40.23;;;32.80;;
20002;SDS011;10162;41.600;23.806;2022-09-01T06:12:22;34.13;;;24.37;;
20002;SDS011;10162;41.600;23.806;2022-09-01T06:14:50;18.57;;;15.93;;
20002;SDS011;10162;41.600;23.806;2022-09-01T06:17:19;18.97;;;15.27;;
20002;SDS011;10162;41.600;23.806;2022-09-01T06:19:50;18.80;;;13.00;;
20002;SDS011;10162;41.600;23.806;2022-09-01T06:22:18;15.70;;;11.90;;
20002;SDS011;10162;41.600;23.806;2022-09-01T06:24:45;15.77;;;12.47;;
20002;SDS011;10162;41.600;23.806;2022-09-01T06:27:12;15.10;;;11.77;;
20002;SDS011;10162;41.600;23.806;2022-09-01T06:29:42;16.03;;;12.90;;
20002;SDS011;10162;41.600;23.806;2022-09-01T06:32:10;20.43;;;14.70;;
20002;SDS011;10162;41.600;23.806;2022-09-01T06:34:41;14.67;;;13.10;;
20002;SDS011;10162;41.600;23.806;2022-09-01T06:37:09;19.37;;;14.83;;
20002;SDS011;10162;41.600;23.806;2022-09-01T06:39:38;16.53;;;13.17;;
20002;SDS011;10162;41.600;23.806;2022-09-01T06:42:04;18.23;;;14.67;;
20002;SDS011;10162;41.600;23.806;2022-09-01T06:44:42;18.43;;;13.10;;
20002;SDS011;10162;41.600;23.806;2022-09-01T06:47:08;16.67;;;14.57;;
20002;SDS011;10162;41.600;23.806;2022-09-01T06:49:34;16.73;;;13.93;;
20002;SDS011;10162;41.600;23.806;2022-09-01T06:52:07;17.60;;;15.33;;
20002;SDS011;10162;41.600;23.806;2022-09-01T06:54:34;21.90;;;16.40;;
20002;SDS011;10162;41.600;23.806;2022-09-01T06:57:03;20.53;;;16.70;;
20002;SDS011;10162;41.600;23.806;2022-09-01T06:59:30;26.33;;;17.97;;
20002;SDS011;10162;41.600;23.806;2022-09-01T07:01:58;17.23;;;14.43;;
20002;SDS011;10162;41.600;23.806;2022-09-01T07:04:42;17.30;;;14.33;;
20002;SDS011;10162;41.600;23.806;2022-09-01T07:07:09;16.57;;;14.60;;
20002;SDS011;10162;41.600;23.806;2022-09-01T07:09:54;16.70;;;13.00;;
20002;SDS011;10162;41.600;23.806;2022-09-01T07:12:42;15.50;;;12.43;;
20002;SDS011;10162;41.600;23.806;2022-09-01T07:15:21;15.60;;;13.00;;
20002;SDS011;10162;41.600;23.806;2022-09-01T07:17:48;16.03;;;11.73;;
20002;SDS011;10162;41.600;23.806;2022-09-01T07:20:19;14.47;;;11.60;;
20002;SDS011;10162;41.600;23.806;2022-09-01T07:22:47;13.23;;;11.07;;
20002;SDS011;10162;41.600;23.806;2022-09-01T07:28:05;13.00;;;10.50;;
20002;SDS011;10162;41.600;23.806;2022-09-01T07:30:33;12.00;;;10.73;;
20002;SDS011;10162;41.600;23.806;2022-09-01T07:33:10;15.43;;;9.82;;
20002;SDS011;10162;41.600;23.806;2022-09-01T07:35:39;13.43;;;9.85;;
20002;SDS011;10162;41.600;23.806;2022-09-01T07:38:06;16.20;;;9.82;;
20002;SDS011;10162;41.600;23.806;2022-09-01T07:40:35;13.63;;;11.00;;
20002;SDS011;10162;41.600;23.806;2022-09-01T07:43:14;16.70;;;13.07;;
20002;SDS011;10162;41.600;23.806;2022-09-01T07:46:02;11.93;;;9.93;;
20002;SDS011;10162;41.600;23.806;2022-09-01T07:48:30;14.57;;;9.77;;
20002;SDS011;10162;41.600;23.806;2022-09-01T07:50:55;12.95;;;11.00;;
20002;SDS011;10162;41.600;23.806;2022-09-01T07:56:16;10.95;;;9.85;;
20002;SDS011;10162;41.600;23.806;2022-09-01T07:58:47;13.13;;;9.85;;
20002;SDS011;10162;41.600;23.806;2022-09-01T08:01:15;11.75;;;10.07;;
20002;SDS011;10162;41.600;23.806;2022-09-01T08:03:45;11.13;;;9.68;;
20002;SDS011;10162;41.600;23.806;2022-09-01T08:06:13;14.65;;;10.13;;
20002;SDS011;10162;41.600;23.806;2022-09-01T08:08:45;13.77;;;10.27;;
20002;SDS011;10162;41.600;23.806;2022-09-01T08:11:23;11.38;;;9.95;;
20002;SDS011;10162;41.600;23.806;2022-09-01T08:16:38;13.18;;;10.60;;
20002;SDS011;10162;41.600;23.806;2022-09-01T08:19:05;17.30;;;14.38;;
20002;SDS011;10162;41.600;23.806;2022-09-01T08:21:54;12.68;;;11.35;;
20002;SDS011;10162;41.600;23.806;2022-09-01T08:27:40;12.38;;;10.30;;
20002;SDS011;10162;41.600;23.806;2022-09-01T08:30:08;10.52;;;9.52;;
20002;SDS011;10162;41.600;23.806;2022-09-01T08:32:38;11.27;;;10.18;;
20002;SDS011;10162;41.600;23.806;2022-09-01T08:37:56;22.33;;;15.30;;
20002;SDS011;10162;41.600;23.806;2022-09-01T08:40:24;12.32;;;10.32;;
20002;SDS011;10162;41.600;23.806;2022-09-01T08:42:53;14.57;;;9.35;;
20002;SDS011;10162;41.600;23.806;2022-09-01T08:50:53;16.42;;;10.23;;
20002;SDS011;10162;41.600;23.806;2022-09-01T08:57:19;14.27;;;9.23;;
20002;SDS011;10162;41.600;23.806;2022-09-01T09:00:13;10.18;;;8.88;;
20002;SDS011;10162;41.600;23.806;2022-09-01T09:17:01;11.38;;;9.35;;
20002;SDS011;10162;41.600;23.806;2022-09-01T09:19:36;10.70;;;8.50;;
20002;SDS011;10162;41.600;23.806;2022-09-01T09:22:10;13.07;;;8.60;;
20002;SDS011;10162;41.600;23.806;2022-09-01T09:27:35;13.88;;;8.85;;
20002;SDS011;10162;41.600;23.806;2022-09-01T09:35:34;10.25;;;8.20;;
20002;SDS011;10162;41.600;23.806;2022-09-01T09:41:14;9.27;;;7.68;;
20002;SDS011;10162;41.600;23.806;2022-09-01T09:46:44;9.70;;;8.18;;
20002;SDS011;10162;41.600;23.806;2022-09-01T09:51:54;10.15;;;7.15;;
20002;SDS011;10162;41.600;23.806;2022-09-01T09:58:09;9.88;;;7.43;;
20002;SDS011;10162;41.600;23.806;2022-09-01T10:00:36;12.40;;;7.38;;
20002;SDS011;10162;41.600;23.806;2022-09-01T10:03:05;12.23;;;6.90;;
20002;SDS011;10162;41.600;23.806;2022-09-01T10:05:41;14.65;;;7.72;;
20002;SDS011;10162;41.600;23.806;2022-09-01T10:08:11;9.30;;;7.50;;
20002;SDS011;10162;41.600;23.806;2022-09-01T10:10:44;10.60;;;7.60;;
20002;SDS011;10162;41.600;23.806;2022-09-01T10:13:13;8.20;;;7.40;;
20002;SDS011;10162;41.600;23.806;2022-09-01T10:15:46;8.35;;;7.53;;
20002;SDS011;10162;41.600;23.806;2022-09-01T10:18:15;9.80;;;7.43;;
20002;SDS011;10162;41.600;23.806;2022-09-01T10:20:50;9.32;;;7.15;;
20002;SDS011;10162;41.600;23.806;2022-09-01T10:27:30;7.70;;;6.85;;
20002;SDS011;10162;41.600;23.806;2022-09-01T10:32:46;9.75;;;6.95;;
20002;SDS011;10162;41.600;23.806;2022-09-01T10:39:02;8.82;;;7.53;;
20002;SDS011;10162;41.600;23.806;2022-09-01T10:47:54;12.05;;;7.20;;
20002;SDS011;10162;41.600;23.806;2022-09-01T10:50:25;10.65;;;6.90;;
20002;SDS011;10162;41.600;23.806;2022-09-01T10:59:23;8.25;;;6.50;;
20002;SDS011;10162;41.600;23.806;2022-09-01T11:11:13;8.10;;;7.15;;
20002;SDS011;10162;41.600;23.806;2022-09-01T11:17:21;8.68;;;6.90;;
20002;SDS011;10162;41.600;23.806;2022-09-01T11:22:43;10.07;;;6.70;;
20002;SDS011;10162;41.600;23.806;2022-09-01T11:30:33;7.85;;;6.35;;
20002;SDS011;10162;41.600;23.806;2022-09-01T11:47:41;9.30;;;6.95;;
20002;SDS011;10162;41.600;23.806;2022-09-01T11:52:54;9.55;;;7.22;;
20002;SDS011;10162;41.600;23.806;2022-09-01T11:59:09;11.10;;;7.60;;
20002;SDS011;10162;41.600;23.806;2022-09-01T12:01:36;8.15;;;7.10;;
20002;SDS011;10162;41.600;23.806;2022-09-01T12:06:57;8.48;;;7.20;;
20002;SDS011;10162;41.600;23.806;2022-09-01T12:09:59;10.30;;;6.93;;
20002;SDS011;10162;41.600;23.806;2022-09-01T12:12:35;9.93;;;6.78;;
20002;SDS011;10162;41.600;23.806;2022-09-01T12:15:21;12.15;;;7.57;;
20002;SDS011;10162;41.600;23.806;2022-09-01T12:17:48;9.02;;;7.00;;
20002;SDS011;10162;41.600;23.806;2022-09-01T12:20:18;7.72;;;6.60;;
20002;SDS011;10162;41.600;23.806;2022-09-01T12:22:44;8.85;;;6.80;;
20002;SDS011;10162;41.600;23.806;2022-09-01T12:25:28;8.07;;;7.20;;
20002;SDS011;10162;41.600;23.806;2022-09-01T12:27:59;8.77;;;7.07;;
20002;SDS011;10162;41.600;23.806;2022-09-01T12:30:26;7.50;;;6.38;;
20002;SDS011;10162;41.600;23.806;2022-09-01T12:32:53;8.68;;;7.40;;
20002;SDS011;10162;41.600;23.806;2022-09-01T12:38:30;9.98;;;7.53;;
20002;SDS011;10162;41.600;23.806;2022-09-01T12:40:56;7.78;;;7.10;;
20002;SDS011;10162;41.600;23.806;2022-09-01T12:43:41;7.90;;;6.88;;
20002;SDS011;10162;41.600;23.806;2022-09-01T12:46:11;7.90;;;7.18;;
20002;SDS011;10162;41.600;23.806;2022-09-01T12:48:38;8.20;;;7.30;;
20002;SDS011;10162;41.600;23.806;2022-09-01T12:51:17;8.30;;;6.97;;
20002;SDS011;10162;41.600;23.806;2022-09-01T12:53:50;10.48;;;7.32;;
20002;SDS011;10162;41.600;23.806;2022-09-01T12:58:50;7.88;;;7.10;;
20002;SDS011;10162;41.600;23.806;2022-09-01T13:01:44;8.27;;;7.50;;
20002;SDS011;10162;41.600;23.806;2022-09-01T13:04:12;10.35;;;7.50;;
20002;SDS011;10162;41.600;23.806;2022-09-01T13:06:47;9.30;;;7.85;;
20002;SDS011;10162;41.600;23.806;2022-09-01T13:09:14;7.85;;;7.03;;
20002;SDS011;10162;41.600;23.806;2022-09-01T13:11:40;8.43;;;6.88;;
20002;SDS011;10162;41.600;23.806;2022-09-01T13:14:07;9.07;;;7.50;;
20002;SDS011;10162;41.600;23.806;2022-09-01T13:16:34;9.07;;;8.20;;
20002;SDS011;10162;41.600;23.806;2022-09-01T13:19:01;9.60;;;7.80;;
20002;SDS011;10162;41.600;23.806;2022-09-01T13:21:29;11.60;;;7.80;;
20002;SDS011;10162;41.600;23.806;2022-09-01T13:23:56;11.50;;;8.02;;
20002;SDS011;10162;41.600;23.806;2022-09-01T13:26:22;9.23;;;8.23;;
20002;SDS011;10162;41.600;23.806;2022-09-01T13:28:48;11.18;;;9.40;;
20002;SDS011;10162;41.600;23.806;2022-09-01T13:31:15;9.05;;;8.13;;
20002;SDS011;10162;41.600;23.806;2022-09-01T13:36:09;9.27;;;7.78;;
20002;SDS011;10162;41.600;23.806;2022-09-01T13:38:35;9.95;;;7.63;;
20002;SDS011;10162;41.600;23.806;2022-09-01T13:41:01;12.70;;;7.95;;
20002;SDS011;10162;41.600;23.806;2022-09-01T13:43:32;10.45;;;7.53;;
20002;SDS011;10162;41.600;23.806;2022-09-01T13:45:58;10.43;;;7.65;;
20002;SDS011;10162;41.600;23.806;2022-09-01T13:48:24;11.10;;;8.15;;
20002;SDS011;10162;41.600;23.806;2022-09-01T13:50:52;11.98;;;7.43;;
20002;SDS011;10162;41.600;23.806;2022-09-01T13:53:33;8.95;;;8.05;;
20002;SDS011;10162;41.600;23.806;2022-09-01T13:55:59;9.32;;;7.35;;
20002;SDS011;10162;41.600;23.806;2022-09-01T13:58:24;11.57;;;8.27;;
20002;SDS011;10162;41.600;23.806;2022-09-01T14:00:50;14.35;;;8.10;;
20002;SDS011;10162;41.600;23.806;2022-09-01T14:03:19;10.30;;;7.63;;
20002;SDS011;10162;41.600;23.806;2022-09-01T14:05:47;9.55;;;8.05;;
20002;SDS011;10162;41.600;23.806;2022-09-01T14:08:14;8.63;;;7.72;;
20002;SDS011;10162;41.600;23.806;2022-09-01T14:10:43;12.57;;;8.68;;
20002;SDS011;10162;41.600;23.806;2022-09-01T14:13:11;9.38;;;8.38;;
20002;SDS011;10162;41.600;23.806;2022-09-01T14:15:37;9.65;;;8.07;;
20002;SDS011;10162;41.600;23.806;2022-09-01T14:18:03;8.65;;;7.80;;
20002;SDS011;10162;41.600;23.806;2022-09-01T14:20:32;9.52;;;8.50;;
20002;SDS011;10162;41.600;23.806;2022-09-01T14:23:04;12.70;;;7.97;;
20002;SDS011;10162;41.600;23.806;2022-09-01T14:25:32;10.13;;;8.85;;
20002;SDS011;10162;41.600;23.806;2022-09-01T14:27:59;10.02;;;8.20;;
20002;SDS011;10162;41.600;23.806;2022-09-01T14:30:27;9.30;;;8.40;;
20002;SDS011;10162;41.600;23.806;2022-09-01T14:32:55;11.43;;;8.48;;
20002;SDS011;10162;41.600;23.806;2022-09-01T14:35:22;12.40;;;8.40;;
20002;SDS011;10162;41.600;23.806;2022-09-01T14:37:49;12.07;;;8.30;;
20002;SDS011;10162;41.600;23.806;2022-09-01T14:40:15;10.20;;;8.35;;
20002;SDS011;10162;41.600;23.806;2022-09-01T14:42:43;9.95;;;8.02;;
20002;SDS011;10162;41.600;23.806;2022-09-01T14:45:16;12.23;;;8.40;;
20002;SDS011;10162;41.600;23.806;2022-09-01T14:47:47;9.63;;;8.43;;
20002;SDS011;10162;41.600;23.806;2022-09-01T14:50:15;11.13;;;8.38;;
20002;SDS011;10162;41.600;23.806;2022-09-01T14:52:41;10.35;;;8.45;;
20002;SDS011;10162;41.600;23.806;2022-09-01T14:55:08;8.30;;;7.60;;
20002;SDS011;10162;41.600;23.806;2022-09-01T14:57:35;11.88;;;8.25;;
20002;SDS011;10162;41.600;23.806;2022-09-01T15:00:01;11.00;;;8.07;;
20002;SDS011;10162;41.600;23.806;2022-09-01T15:02:28;10.88;;;8.32;;
20002;SDS011;10162;41.600;23.806;2022-09-01T15:04:55;14.63;;;8.93;;
20002;SDS011;10162;41.600;23.806;2022-09-01T15:07:21;9.38;;;8.32;;
20002;SDS011;10162;41.600;23.806;2022-09-01T15:09:47;10.75;;;8.52;;
20002;SDS011;10162;41.600;23.806;2022-09-01T15:12:13;9.52;;;8.52;;
20002;SDS011;10162;41.600;23.806;2022-09-01T15:14:38;12.38;;;8.85;;
20002;SDS011;10162;41.600;23.806;2022-09-01T15:17:04;12.68;;;8.48;;
20002;SDS011;10162;41.600;23.806;2022-09-01T15:19:31;9.00;;;8.10;;
20002;SDS011;10162;41.600;23.806;2022-09-01T15:21:57;9.45;;;8.52;;
20002;SDS011;10162;41.600;23.806;2022-09-01T15:24:23;10.63;;;7.35;;
20002;SDS011;10162;41.600;23.806;2022-09-01T15:26:48;9.48;;;7.18;;
20002;SDS011;10162;41.600;23.806;2022-09-01T15:29:14;10.38;;;7.78;;
20002;SDS011;10162;41.600;23.806;2022-09-01T15:31:41;10.75;;;7.78;;
20002;SDS011;10162;41.600;23.806;2022-09-01T15:34:09;8.77;;;7.50;;
20002;SDS011;10162;41.600;23.806;2022-09-01T15:36:37;12.88;;;7.63;;
20002;SDS011;10162;41.600;23.806;2022-09-01T15:39:05;8.90;;;6.72;;
20002;SDS011;10162;41.600;23.806;2022-09-01T15:41:34;7.78;;;6.97;;
20002;SDS011;10162;41.600;23.806;2022-09-01T15:44:16;8.20;;;7.35;;
20002;SDS011;10162;41.600;23.806;2022-09-01T15:46:42;10.40;;;7.25;;
20002;SDS011;10162;41.600;23.806;2022-09-01T15:49:10;9.00;;;7.40;;
20002;SDS011;10162;41.600;23.806;2022-09-01T15:51:37;8.70;;;7.78;;
20002;SDS011;10162;41.600;23.806;2022-09-01T15:56:37;12.43;;;8.13;;
20002;SDS011;10162;41.600;23.806;2022-09-01T15:59:04;18.33;;;8.15;;
20002;SDS011;10162;41.600;23.806;2022-09-01T16:01:32;12.25;;;8.60;;
20002;SDS011;10162;41.600;23.806;2022-09-01T16:06:50;9.70;;;7.20;;
20002;SDS011;10162;41.600;23.806;2022-09-01T16:09:17;11.07;;;8.70;;
20002;SDS011;10162;41.600;23.806;2022-09-01T16:11:45;8.68;;;7.72;;
20002;SDS011;10162;41.600;23.806;2022-09-01T16:14:14;8.50;;;7.60;;
20002;SDS011;10162;41.600;23.806;2022-09-01T16:16:44;7.82;;;6.93;;
20002;SDS011;10162;41.600;23.806;2022-09-01T16:22:25;12.73;;;8.20;;
20002;SDS011;10162;41.600;23.806;2022-09-01T16:27:43;11.18;;;7.75;;
20002;SDS011;10162;41.600;23.806;2022-09-01T16:30:14;12.05;;;8.48;;
20002;SDS011;10162;41.600;23.806;2022-09-01T16:32:46;31.65;;;18.30;;
20002;SDS011;10162;41.600;23.806;2022-09-01T16:38:34;9.27;;;8.32;;
20002;SDS011;10162;41.600;23.806;2022-09-01T16:41:14;9.98;;;7.50;;
20002;SDS011;10162;41.600;23.806;2022-09-01T16:52:17;10.75;;;8.80;;
20002;SDS011;10162;41.600;23.806;2022-09-01T16:58:19;12.90;;;8.90;;
20002;SDS011;10162;41.600;23.806;2022-09-01T17:07:14;12.23;;;8.80;;
20002;SDS011;10162;41.600;23.806;2022-09-01T17:09:53;10.93;;;8.70;;
20002;SDS011;10162;41.600;23.806;2022-09-01T17:12:25;9.45;;;8.40;;
20002;SDS011;10162;41.600;23.806;2022-09-01T17:21:18;16.45;;;10.48;;
20002;SDS011;10162;41.600;23.806;2022-09-01T17:40:59;10.70;;;8.93;;
20002;SDS011;10162;41.600;23.806;2022-09-01T17:52:50;12.20;;;9.52;;
20002;SDS011;10162;41.600;23.806;2022-09-01T18:08:42;11.82;;;9.52;;
20002;SDS011;10162;41.600;23.806;2022-09-01T18:11:17;10.43;;;9.43;;
20002;SDS011;10162;41.600;23.806;2022-09-01T18:20:36;12.45;;;10.07;;
20002;SDS011;10162;41.600;23.806;2022-09-01T18:23:07;12.30;;;9.87;;
20002;SDS011;10162;41.600;23.806;2022-09-01T18:25:41;16.33;;;10.30;;
20002;SDS011;10162;41.600;23.806;2022-09-01T18:28:14;12.88;;;10.95;;
20002;SDS011;10162;41.600;23.806;2022-09-01T18:38:23;11.83;;;10.30;;
20002;SDS011;10162;41.600;23.806;2022-09-01T18:43:35;12.33;;;11.00;;
20002;SDS011;10162;41.600;23.806;2022-09-01T18:51:53;12.57;;;11.07;;
20002;SDS011;10162;41.600;23.806;2022-09-01T18:54:33;12.23;;;10.63;;
20002;SDS011;10162;41.600;23.806;2022-09-01T18:57:16;13.57;;;11.03;;
20002;SDS011;10162;41.600;23.806;2022-09-01T19:05:43;13.50;;;10.77;;
20002;SDS011;10162;41.600;23.806;2022-09-01T19:09:18;11.97;;;10.77;;
20002;SDS011;10162;41.600;23.806;2022-09-01T19:25:50;15.30;;;11.20;;
20002;SDS011;10162;41.600;23.806;2022-09-01T19:31:20;12.57;;;11.37;;
20002;SDS011;10162;41.600;23.806;2022-09-01T19:33:58;12.67;;;11.30;;
20002;SDS011;10162;41.600;23.806;2022-09-01T19:36:40;12.07;;;10.77;;
20002;SDS011;10162;41.600;23.806;2022-09-01T19:39:17;13.37;;;10.97;;
20002;SDS011;10162;41.600;23.806;2022-09-01T19:44:39;13.60;;;10.97;;
20002;SDS011;10162;41.600;23.806;2022-09-01T19:47:17;14.53;;;11.57;;
20002;SDS011;10162;41.600;23.806;2022-09-01T19:49:54;15.13;;;11.23;;
20002;SDS011;10162;41.600;23.806;2022-09-01T19:52:48;17.60;;;11.93;;